• Join FlightAware (Why Join?)
  • Login
  • US Flag 
 
09:38PM EST


 

Airport Tracker/Info


-or-


 

Live Flight TrackerFlight Track Log ✈ N948CE ✈ 11-Apr-2012 ✈ KBKL - KPTK

Flight Track Log - Related Links

Times and Time Zones

All times are in EDT time to prevent confusion due to time zone crossing. See the N948CE flight status page for this flight to view local times or setup timezone preferences in your user account.

Time Position Orientation Groundspeed Altitude Reporting Facility
EDT Latitude Longitude Course Direction KTS MPH feet Rate Location/Type
12:02PM 41.5253 -81.6703 346° North 154 177 1,200  Level Cleveland Center
12:03PM 41.5689 -81.6850 311° West 154 177 2,000 360 Climbing Cleveland Center
12:04PM 41.5997 -81.7328 299° West 167 192 2,000 360 Level Cleveland Center
12:05PM 41.6203 -81.7831 286° West 164 189 2,800 480 Climbing Cleveland Center
12:06PM 41.6381 -81.8639 290° West 207 238 3,100 60 Climbing Cleveland Center
12:07PM 41.6581 -81.9394 290° West 208 239 3,000 540 Descending Cleveland Center
12:08PM 41.6758 -82.0064 290° West 193 222 4,200 1,380 Climbing Cleveland Center
12:09PM 41.6919 -82.0653 290° West 176 203 5,900 840 Climbing Cleveland Center
12:10PM 41.7097 -82.1325 288° West 207 238 6,000 780 Climbing Cleveland Center
12:11PM 41.7275 -82.2053 293° West 203 234 7,500 960 Climbing Cleveland Center
12:12PM 41.7494 -82.2753 295° West 202 232 8,000 240 Climbing Cleveland Center
12:13PM 41.7775 -82.3567 286° West 236 272 8,000  Level Cleveland Center
12:15PM 41.8008 -82.4633 288° West 249 287 8,000  Level Cleveland Center
12:16PM 41.8261 -82.5672 302° West 249 287 8,000  Level Cleveland Center
12:17PM 41.8603 -82.6408 328° Northwest 232 267 8,000  Level Cleveland Center
12:18PM 41.9114 -82.6842 329° Northwest 221 254 8,000  Level Cleveland Center
12:19PM 41.9650 -82.7278 326° Northwest 222 255 8,000 -60 Level Cleveland Center
12:20PM 42.0203 -82.7772 331° Northwest 224 258 7,900 -540 Descending Cleveland Center
12:21PM 42.0717 -82.8153 326° Northwest 215 247 7,000 -840 Descending Cleveland Center
12:22PM 42.1208 -82.8592 329° Northwest 208 239 6,200 -900 Descending Cleveland Center
12:23PM 42.1742 -82.9031 328° Northwest 201 231 5,100 -840 Descending Cleveland Center
12:24PM 42.2150 -82.9381 328° Northwest 197 227 4,500 -600 Descending Cleveland Center
12:25PM 42.2664 -82.9822 331° Northwest 192 221 4,000 -240 Descending Cleveland Center
12:26PM 42.3136 -83.0178 329° Northwest 189 217 4,000  Level Cleveland Center
12:27PM 42.3567 -83.0531 325° Northwest 192 221 4,000 -240 Level Cleveland Center
12:28PM 42.4036 -83.0969 327° Northwest 203 234 3,600 -480 Descending Cleveland Center
12:29PM 42.4508 -83.1378 328° Northwest 205 236 3,100 -360 Descending FAA TRACON SMA TRACON (SMA)
12:29PM 42.4828 -83.1647 328° Northwest 201 231 3,000 -120 Descending FAA TRACON SMA TRACON (SMA)
12:30PM 42.5144 -83.1911 328° Northwest 195 224 3,000  Level FAA TRACON SMA TRACON (SMA)
12:31PM 42.5450 -83.2169 327° Northwest 194 223 3,000  Level FAA TRACON SMA TRACON (SMA)
12:32PM 42.5736 -83.2425 321° Northwest 197 227 3,000  Level FAA TRACON SMA TRACON (SMA)
12:32PM 42.5994 -83.2711 312° West 195 224 3,000 -360 Level FAA TRACON SMA TRACON (SMA)
12:33PM 42.6264 -83.3114 308° West 184 212 2,600 -600 Descending FAA TRACON SMA TRACON (SMA)
12:33PM 42.6442 -83.3425 293° West 154 177 2,200 -720 Descending FAA TRACON SMA TRACON (SMA)
12:34PM 42.6517 -83.3667 312° West 126 145 1,800 -540 Descending Cleveland Center
12:35PM 42.6636 -83.3850 312° West 123 142 1,500 -420 Descending FAA TRACON SMA TRACON (SMA)